sensor_id;sensor_type;location;lat;lon;timestamp;temperature;humidity
5415;DHT22;2730;51.512;7.504;2023-01-29T00:03:16;-2.70;99.90
5415;DHT22;2730;51.512;7.504;2023-01-29T00:05:43;-2.70;99.90
5415;DHT22;2730;51.512;7.504;2023-01-29T00:08:11;-2.80;99.90
5415;DHT22;2730;51.512;7.504;2023-01-29T00:10:38;-2.80;99.90
5415;DHT22;2730;51.512;7.504;2023-01-29T00:13:04;-2.80;99.90
5415;DHT22;2730;51.512;7.504;2023-01-29T00:15:31;-2.80;99.90
5415;DHT22;2730;51.512;7.504;2023-01-29T00:17:58;-2.80;99.90
5415;DHT22;2730;51.512;7.504;2023-01-29T00:20:26;-2.80;99.90
5415;DHT22;2730;51.512;7.504;2023-01-29T00:22:53;-2.80;99.90
5415;DHT22;2730;51.512;7.504;2023-01-29T00:25:20;-2.80;99.90
5415;DHT22;2730;51.512;7.504;2023-01-29T00:27:47;-2.80;99.90
5415;DHT22;2730;51.512;7.504;2023-01-29T00:30:14;-2.80;99.90
5415;DHT22;2730;51.512;7.504;2023-01-29T00:32:43;-2.80;99.90
5415;DHT22;2730;51.512;7.504;2023-01-29T00:35:11;-2.80;99.90
5415;DHT22;2730;51.512;7.504;2023-01-29T00:37:39;-2.80;99.90
5415;DHT22;2730;51.512;7.504;2023-01-29T00:40:07;-2.80;99.90
5415;DHT22;2730;51.512;7.504;2023-01-29T00:42:34;-2.80;99.90
5415;DHT22;2730;51.512;7.504;2023-01-29T00:45:18;-2.80;99.90
5415;DHT22;2730;51.512;7.504;2023-01-29T00:47:45;-2.90;99.90
5415;DHT22;2730;51.512;7.504;2023-01-29T00:50:11;-2.90;99.90
5415;DHT22;2730;51.512;7.504;2023-01-29T00:52:40;-2.80;99.90
5415;DHT22;2730;51.512;7.504;2023-01-29T00:55:08;-2.90;99.90
5415;DHT22;2730;51.512;7.504;2023-01-29T00:57:36;-2.80;99.90
5415;DHT22;2730;51.512;7.504;2023-01-29T01:00:05;-2.90;99.90
5415;DHT22;2730;51.512;7.504;2023-01-29T01:02:32;-2.90;99.90
5415;DHT22;2730;51.512;7.504;2023-01-29T01:05:17;-3.00;99.90
5415;DHT22;2730;51.512;7.504;2023-01-29T01:07:46;-3.00;99.90
5415;DHT22;2730;51.512;7.504;2023-01-29T01:10:16;-3.00;99.90
5415;DHT22;2730;51.512;7.504;2023-01-29T01:12:52;-3.00;99.90
5415;DHT22;2730;51.512;7.504;2023-01-29T01:15:20;-3.00;99.90
5415;DHT22;2730;51.512;7.504;2023-01-29T01:17:47;-3.00;99.90
5415;DHT22;2730;51.512;7.504;2023-01-29T01:20:14;-3.00;99.90
5415;DHT22;2730;51.512;7.504;2023-01-29T01:22:41;-3.10;99.90
5415;DHT22;2730;51.512;7.504;2023-01-29T01:25:09;-3.10;99.90
5415;DHT22;2730;51.512;7.504;2023-01-29T01:27:36;-3.00;99.90
5415;DHT22;2730;51.512;7.504;2023-01-29T01:30:10;-3.00;99.90
5415;DHT22;2730;51.512;7.504;2023-01-29T01:32:37;-3.00;99.90
5415;DHT22;2730;51.512;7.504;2023-01-29T01:35:05;-3.00;99.90
5415;DHT22;2730;51.512;7.504;2023-01-29T01:37:32;-3.00;99.90
5415;DHT22;2730;51.512;7.504;2023-01-29T01:40:02;-3.10;99.90
5415;DHT22;2730;51.512;7.504;2023-01-29T01:42:31;-3.10;99.90
5415;DHT22;2730;51.512;7.504;2023-01-29T01:45:00;-3.10;99.90
5415;DHT22;2730;51.512;7.504;2023-01-29T01:47:34;-3.10;99.90
5415;DHT22;2730;51.512;7.504;2023-01-29T01:50:06;-3.10;99.90
5415;DHT22;2730;51.512;7.504;2023-01-29T01:52:36;-3.10;99.90
5415;DHT22;2730;51.512;7.504;2023-01-29T01:55:06;-3.10;99.90
5415;DHT22;2730;51.512;7.504;2023-01-29T01:57:36;-3.10;99.90
5415;DHT22;2730;51.512;7.504;2023-01-29T02:00:07;-3.10;99.90
5415;DHT22;2730;51.512;7.504;2023-01-29T02:02:36;-3.10;99.90
5415;DHT22;2730;51.512;7.504;2023-01-29T06:00:47;-1.20;51.30
5415;DHT22;2730;51.512;7.504;2023-01-29T06:03:14;-1.20;40.90
5415;DHT22;2730;51.512;7.504;2023-01-29T06:05:41;-1.10;43.70
5415;DHT22;2730;51.512;7.504;2023-01-29T06:08:08;-1.00;37.70
5415;DHT22;2730;51.512;7.504;2023-01-29T06:10:35;-1.00;25.10
5415;DHT22;2730;51.512;7.504;2023-01-29T06:13:02;-1.00;29.30
5415;DHT22;2730;51.512;7.504;2023-01-29T06:15:29;-0.90;26.80
5415;DHT22;2730;51.512;7.504;2023-01-29T06:17:57;-0.80;22.70
5415;DHT22;2730;51.512;7.504;2023-01-29T06:20:24;-0.80;10.20
5415;DHT22;2730;51.512;7.504;2023-01-29T06:22:51;-0.70;1.00
5415;DHT22;2730;51.512;7.504;2023-01-29T06:25:17;-0.80;1.00
5415;DHT22;2730;51.512;7.504;2023-01-29T06:27:44;-0.80;1.00
5415;DHT22;2730;51.512;7.504;2023-01-29T06:30:12;-0.80;1.00
5415;DHT22;2730;51.512;7.504;2023-01-29T06:32:39;-0.80;5.10
5415;DHT22;2730;51.512;7.504;2023-01-29T06:35:08;-0.80;3.30
5415;DHT22;2730;51.512;7.504;2023-01-29T06:37:35;-0.70;1.00
5415;DHT22;2730;51.512;7.504;2023-01-29T06:40:02;-0.70;3.80
5415;DHT22;2730;51.512;7.504;2023-01-29T06:42:29;-0.60;2.60
5415;DHT22;2730;51.512;7.504;2023-01-29T06:44:57;-0.50;1.00
5415;DHT22;2730;51.512;7.504;2023-01-29T06:47:23;-0.50;1.00
5415;DHT22;2730;51.512;7.504;2023-01-29T06:49:50;-0.50;1.00
5415;DHT22;2730;51.512;7.504;2023-01-29T06:52:19;-0.60;1.00
5415;DHT22;2730;51.512;7.504;2023-01-29T06:54:45;-0.50;1.00
5415;DHT22;2730;51.512;7.504;2023-01-29T06:57:12;-0.50;1.00
5415;DHT22;2730;51.512;7.504;2023-01-29T06:59:39;-0.60;1.00
5415;DHT22;2730;51.512;7.504;2023-01-29T07:02:06;-0.60;1.00
5415;DHT22;2730;51.512;7.504;2023-01-29T07:04:34;-0.60;1.00
5415;DHT22;2730;51.512;7.504;2023-01-29T07:07:02;-0.50;1.00
5415;DHT22;2730;51.512;7.504;2023-01-29T07:09:30;-0.50;1.00
5415;DHT22;2730;51.512;7.504;2023-01-29T07:11:57;-0.50;1.00
5415;DHT22;2730;51.512;7.504;2023-01-29T07:14:24;-0.50;1.00
5415;DHT22;2730;51.512;7.504;2023-01-29T07:16:51;-0.50;1.00
5415;DHT22;2730;51.512;7.504;2023-01-29T07:19:17;-0.50;1.00
5415;DHT22;2730;51.512;7.504;2023-01-29T07:21:44;-0.50;1.00
5415;DHT22;2730;51.512;7.504;2023-01-29T07:24:11;-0.50;1.00
5415;DHT22;2730;51.512;7.504;2023-01-29T07:26:39;-0.50;1.00
5415;DHT22;2730;51.512;7.504;2023-01-29T07:29:06;-0.40;1.00
5415;DHT22;2730;51.512;7.504;2023-01-29T07:31:33;-0.40;1.00
5415;DHT22;2730;51.512;7.504;2023-01-29T07:34:00;-0.40;1.00
5415;DHT22;2730;51.512;7.504;2023-01-29T07:36:27;-0.20;1.00
5415;DHT22;2730;51.512;7.504;2023-01-29T07:38:54;-0.30;1.00
5415;DHT22;2730;51.512;7.504;2023-01-29T07:41:21;-0.20;1.00
5415;DHT22;2730;51.512;7.504;2023-01-29T07:43:49;-0.20;1.00
5415;DHT22;2730;51.512;7.504;2023-01-29T07:46:16;-0.20;1.00
5415;DHT22;2730;51.512;7.504;2023-01-29T07:48:43;-0.20;1.00
5415;DHT22;2730;51.512;7.504;2023-01-29T07:51:10;-0.20;1.00
5415;DHT22;2730;51.512;7.504;2023-01-29T07:53:37;-0.10;1.00
5415;DHT22;2730;51.512;7.504;2023-01-29T07:56:04;-0.10;1.00
5415;DHT22;2730;51.512;7.504;2023-01-29T07:58:31;0.00;1.00
5415;DHT22;2730;51.512;7.504;2023-01-29T08:00:59;0.00;1.00
5415;DHT22;2730;51.512;7.504;2023-01-29T08:03:26;0.00;1.00
5415;DHT22;2730;51.512;7.504;2023-01-29T08:05:53;-0.10;1.00
5415;DHT22;2730;51.512;7.504;2023-01-29T08:08:19;0.00;1.00
5415;DHT22;2730;51.512;7.504;2023-01-29T08:10:46;0.10;1.00
5415;DHT22;2730;51.512;7.504;2023-01-29T08:13:14;0.20;1.00
5415;DHT22;2730;51.512;7.504;2023-01-29T08:15:42;0.20;1.00
5415;DHT22;2730;51.512;7.504;2023-01-29T08:18:11;0.20;1.00
5415;DHT22;2730;51.512;7.504;2023-01-29T08:20:38;0.10;1.00
5415;DHT22;2730;51.512;7.504;2023-01-29T08:23:07;0.20;1.00
5415;DHT22;2730;51.512;7.504;2023-01-29T08:25:35;0.20;1.00
5415;DHT22;2730;51.512;7.504;2023-01-29T08:28:03;0.20;1.00
5415;DHT22;2730;51.512;7.504;2023-01-29T08:30:32;0.20;1.00
5415;DHT22;2730;51.512;7.504;2023-01-29T08:32:59;0.20;1.00
5415;DHT22;2730;51.512;7.504;2023-01-29T08:35:27;0.20;1.00
5415;DHT22;2730;51.512;7.504;2023-01-29T08:37:55;0.20;1.00
5415;DHT22;2730;51.512;7.504;2023-01-29T08:40:24;0.30;1.00
5415;DHT22;2730;51.512;7.504;2023-01-29T08:42:51;0.20;1.00
5415;DHT22;2730;51.512;7.504;2023-01-29T08:45:18;0.20;1.00
5415;DHT22;2730;51.512;7.504;2023-01-29T08:47:45;0.30;1.00
5415;DHT22;2730;51.512;7.504;2023-01-29T08:50:12;0.40;1.00
5415;DHT22;2730;51.512;7.504;2023-01-29T08:52:41;0.40;1.00
5415;DHT22;2730;51.512;7.504;2023-01-29T08:55:08;0.40;1.00
5415;DHT22;2730;51.512;7.504;2023-01-29T08:57:35;0.40;1.00
5415;DHT22;2730;51.512;7.504;2023-01-29T09:00:03;0.50;1.00
5415;DHT22;2730;51.512;7.504;2023-01-29T09:02:30;0.50;1.00
5415;DHT22;2730;51.512;7.504;2023-01-29T09:04:57;0.50;1.00
5415;DHT22;2730;51.512;7.504;2023-01-29T09:07:24;0.60;1.00
5415;DHT22;2730;51.512;7.504;2023-01-29T09:09:53;0.70;1.00
5415;DHT22;2730;51.512;7.504;2023-01-29T09:12:20;0.70;1.00
5415;DHT22;2730;51.512;7.504;2023-01-29T09:14:47;0.90;1.00
5415;DHT22;2730;51.512;7.504;2023-01-29T09:17:13;0.90;1.00
5415;DHT22;2730;51.512;7.504;2023-01-29T09:19:40;0.80;1.00
5415;DHT22;2730;51.512;7.504;2023-01-29T09:22:07;1.00;1.00
5415;DHT22;2730;51.512;7.504;2023-01-29T09:24:34;1.10;1.00
5415;DHT22;2730;51.512;7.504;2023-01-29T09:27:02;1.10;1.00
5415;DHT22;2730;51.512;7.504;2023-01-29T09:29:29;1.20;1.00
5415;DHT22;2730;51.512;7.504;2023-01-29T09:31:56;1.30;1.00
5415;DHT22;2730;51.512;7.504;2023-01-29T09:34:23;1.30;1.00
5415;DHT22;2730;51.512;7.504;2023-01-29T09:36:51;1.40;1.00
5415;DHT22;2730;51.512;7.504;2023-01-29T09:39:18;1.50;1.00
5415;DHT22;2730;51.512;7.504;2023-01-29T09:41:52;1.70;1.00
5415;DHT22;2730;51.512;7.504;2023-01-29T09:44:29;1.70;1.00
5415;DHT22;2730;51.512;7.504;2023-01-29T09:47:01;1.80;1.00
5415;DHT22;2730;51.512;7.504;2023-01-29T09:49:34;2.00;1.00
5415;DHT22;2730;51.512;7.504;2023-01-29T09:52:05;2.00;99.90
5415;DHT22;2730;51.512;7.504;2023-01-29T09:54:46;1.80;1.00
5415;DHT22;2730;51.512;7.504;2023-01-29T09:57:18;1.80;1.00
5415;DHT22;2730;51.512;7.504;2023-01-29T09:59:49;1.80;1.00
5415;DHT22;2730;51.512;7.504;2023-01-29T10:02:30;1.70;1.00
5415;DHT22;2730;51.512;7.504;2023-01-29T10:05:13;1.70;1.00
5415;DHT22;2730;51.512;7.504;2023-01-29T10:08:03;1.70;1.00
5415;DHT22;2730;51.512;7.504;2023-01-29T10:10:42;1.80;1.00
5415;DHT22;2730;51.512;7.504;2023-01-29T10:13:19;1.90;99.90
5415;DHT22;2730;51.512;7.504;2023-01-29T10:16:00;1.80;1.00
5415;DHT22;2730;51.512;7.504;2023-01-29T10:18:57;1.80;1.00
5415;DHT22;2730;51.512;7.504;2023-01-29T10:21:51;1.80;1.00
5415;DHT22;2730;51.512;7.504;2023-01-29T10:24:28;1.70;1.00
5415;DHT22;2730;51.512;7.504;2023-01-29T10:26:56;1.80;1.00
5415;DHT22;2730;51.512;7.504;2023-01-29T10:29:24;1.80;1.00
5415;DHT22;2730;51.512;7.504;2023-01-29T10:31:56;1.90;1.00
5415;DHT22;2730;51.512;7.504;2023-01-29T10:34:32;1.90;1.00
5415;DHT22;2730;51.512;7.504;2023-01-29T10:37:00;1.90;1.00
5415;DHT22;2730;51.512;7.504;2023-01-29T10:39:33;2.00;99.90
5415;DHT22;2730;51.512;7.504;2023-01-29T10:42:09;2.00;99.90
5415;DHT22;2730;51.512;7.504;2023-01-29T10:44:49;2.10;99.90
5415;DHT22;2730;51.512;7.504;2023-01-29T10:47:35;2.20;99.90
5415;DHT22;2730;51.512;7.504;2023-01-29T10:50:17;2.20;99.90
5415;DHT22;2730;51.512;7.504;2023-01-29T10:52:57;2.10;99.90
5415;DHT22;2730;51.512;7.504;2023-01-29T10:55:40;2.10;99.90
5415;DHT22;2730;51.512;7.504;2023-01-29T10:58:16;2.10;99.90
5415;DHT22;2730;51.512;7.504;2023-01-29T11:00:45;2.20;99.90
5415;DHT22;2730;51.512;7.504;2023-01-29T11:03:15;2.10;1.00
5415;DHT22;2730;51.512;7.504;2023-01-29T11:05:46;2.20;99.90
5415;DHT22;2730;51.512;7.504;2023-01-29T11:08:20;2.10;1.00
5415;DHT22;2730;51.512;7.504;2023-01-29T11:10:53;2.30;99.90
5415;DHT22;2730;51.512;7.504;2023-01-29T11:13:28;2.30;99.90
5415;DHT22;2730;51.512;7.504;2023-01-29T11:15:56;2.40;99.90
5415;DHT22;2730;51.512;7.504;2023-01-29T11:18:24;2.40;99.90
5415;DHT22;2730;51.512;7.504;2023-01-29T11:21:01;2.30;99.90
5415;DHT22;2730;51.512;7.504;2023-01-29T11:23:30;2.30;99.90
5415;DHT22;2730;51.512;7.504;2023-01-29T11:25:58;2.30;99.90
5415;DHT22;2730;51.512;7.504;2023-01-29T11:28:36;2.30;99.90
5415;DHT22;2730;51.512;7.504;2023-01-29T11:31:14;2.20;99.90
5415;DHT22;2730;51.512;7.504;2023-01-29T11:33:43;2.20;99.90
5415;DHT22;2730;51.512;7.504;2023-01-29T11:36:25;2.30;99.90
5415;DHT22;2730;51.512;7.504;2023-01-29T11:39:14;2.30;99.90
5415;DHT22;2730;51.512;7.504;2023-01-29T11:41:48;2.30;99.90
5415;DHT22;2730;51.512;7.504;2023-01-29T11:44:19;2.20;99.90
5415;DHT22;2730;51.512;7.504;2023-01-29T11:46:46;2.20;1.00
5415;DHT22;2730;51.512;7.504;2023-01-29T11:49:22;2.20;1.00
5415;DHT22;2730;51.512;7.504;2023-01-29T11:51:51;2.20;99.90
5415;DHT22;2730;51.512;7.504;2023-01-29T11:54:24;2.20;99.90
5415;DHT22;2730;51.512;7.504;2023-01-29T11:56:53;2.20;99.90
5415;DHT22;2730;51.512;7.504;2023-01-29T11:59:29;2.20;1.00
5415;DHT22;2730;51.512;7.504;2023-01-29T12:02:04;2.20;99.90
5415;DHT22;2730;51.512;7.504;2023-01-29T12:04:32;2.30;99.90
5415;DHT22;2730;51.512;7.504;2023-01-29T12:06:59;2.30;99.90
5415;DHT22;2730;51.512;7.504;2023-01-29T12:09:26;2.40;1.00
5415;DHT22;2730;51.512;7.504;2023-01-29T12:11:54;2.50;99.90
5415;DHT22;2730;51.512;7.504;2023-01-29T12:14:26;2.50;99.90
5415;DHT22;2730;51.512;7.504;2023-01-29T12:16:56;2.50;99.90
5415;DHT22;2730;51.512;7.504;2023-01-29T12:19:28;2.60;99.90
5415;DHT22;2730;51.512;7.504;2023-01-29T12:22:03;2.60;99.90
5415;DHT22;2730;51.512;7.504;2023-01-29T12:24:35;2.60;99.90
5415;DHT22;2730;51.512;7.504;2023-01-29T12:27:10;2.60;99.90
5415;DHT22;2730;51.512;7.504;2023-01-29T12:29:44;2.60;99.90
5415;DHT22;2730;51.512;7.504;2023-01-29T12:32:23;2.70;99.90
5415;DHT22;2730;51.512;7.504;2023-01-29T12:34:58;2.80;99.90
5415;DHT22;2730;51.512;7.504;2023-01-29T12:37:37;2.70;99.90
5415;DHT22;2730;51.512;7.504;2023-01-29T12:40:11;2.70;99.90
5415;DHT22;2730;51.512;7.504;2023-01-29T12:42:40;2.80;99.90
5415;DHT22;2730;51.512;7.504;2023-01-29T12:45:08;2.80;99.90
5415;DHT22;2730;51.512;7.504;2023-01-29T12:47:44;2.80;99.90
5415;DHT22;2730;51.512;7.504;2023-01-29T12:50:17;2.70;99.90
5415;DHT22;2730;51.512;7.504;2023-01-29T12:52:49;2.70;99.90
5415;DHT22;2730;51.512;7.504;2023-01-29T12:55:19;2.70;99.90
5415;DHT22;2730;51.512;7.504;2023-01-29T12:57:52;2.60;1.00
5415;DHT22;2730;51.512;7.504;2023-01-29T13:00:22;2.60;99.90
5415;DHT22;2730;51.512;7.504;2023-01-29T13:02:55;2.60;99.90
5415;DHT22;2730;51.512;7.504;2023-01-29T13:05:25;2.70;99.90
5415;DHT22;2730;51.512;7.504;2023-01-29T13:08:02;2.70;99.90
5415;DHT22;2730;51.512;7.504;2023-01-29T13:10:34;2.70;99.90
5415;DHT22;2730;51.512;7.504;2023-01-29T13:13:05;2.70;99.90
5415;DHT22;2730;51.512;7.504;2023-01-29T13:15:35;2.60;99.90
5415;DHT22;2730;51.512;7.504;2023-01-29T13:18:22;2.50;99.90
5415;DHT22;2730;51.512;7.504;2023-01-29T13:20:56;2.50;99.90
5415;DHT22;2730;51.512;7.504;2023-01-29T13:23:29;2.50;99.90
5415;DHT22;2730;51.512;7.504;2023-01-29T13:25:57;2.40;99.90
5415;DHT22;2730;51.512;7.504;2023-01-29T13:28:26;2.40;99.90
5415;DHT22;2730;51.512;7.504;2023-01-29T13:31:19;2.40;99.90
5415;DHT22;2730;51.512;7.504;2023-01-29T13:33:54;2.50;99.90
5415;DHT22;2730;51.512;7.504;2023-01-29T13:36:24;2.50;99.90
5415;DHT22;2730;51.512;7.504;2023-01-29T13:39:00;2.50;99.90
5415;DHT22;2730;51.512;7.504;2023-01-29T13:41:32;2.50;99.90
5415;DHT22;2730;51.512;7.504;2023-01-29T13:44:00;2.50;99.90
5415;DHT22;2730;51.512;7.504;2023-01-29T13:46:28;2.50;99.90
5415;DHT22;2730;51.512;7.504;2023-01-29T13:48:56;2.40;1.00
5415;DHT22;2730;51.512;7.504;2023-01-29T13:51:33;2.30;1.00
5415;DHT22;2730;51.512;7.504;2023-01-29T13:54:05;2.40;1.00
5415;DHT22;2730;51.512;7.504;2023-01-29T13:56:44;2.50;1.00
5415;DHT22;2730;51.512;7.504;2023-01-29T13:59:22;2.50;99.90
5415;DHT22;2730;51.512;7.504;2023-01-29T14:02:03;2.50;1.00
5415;DHT22;2730;51.512;7.504;2023-01-29T14:04:44;2.50;1.00
5415;DHT22;2730;51.512;7.504;2023-01-29T14:07:38;2.60;1.00
5415;DHT22;2730;51.512;7.504;2023-01-29T14:10:18;2.60;1.00
5415;DHT22;2730;51.512;7.504;2023-01-29T14:12:50;2.60;1.00
5415;DHT22;2730;51.512;7.504;2023-01-29T14:15:19;2.50;1.00
5415;DHT22;2730;51.512;7.504;2023-01-29T14:18:12;2.50;59.70
5415;DHT22;2730;51.512;7.504;2023-01-29T14:20:49;2.50;1.00
5415;DHT22;2730;51.512;7.504;2023-01-29T14:23:23;2.60;1.00
5415;DHT22;2730;51.512;7.504;2023-01-29T14:25:55;2.60;1.00
5415;DHT22;2730;51.512;7.504;2023-01-29T14:28:25;2.60;31.10
5415;DHT22;2730;51.512;7.504;2023-01-29T14:30:52;2.50;99.90
5415;DHT22;2730;51.512;7.504;2023-01-29T14:33:25;2.60;99.90
5415;DHT22;2730;51.512;7.504;2023-01-29T14:35:55;2.50;99.90
5415;DHT22;2730;51.512;7.504;2023-01-29T14:38:25;2.50;99.90
5415;DHT22;2730;51.512;7.504;2023-01-29T14:41:05;2.50;1.00
5415;DHT22;2730;51.512;7.504;2023-01-29T14:43:33;2.50;1.00
5415;DHT22;2730;51.512;7.504;2023-01-29T14:49:00;2.40;99.90
5415;DHT22;2730;51.512;7.504;2023-01-29T14:51:32;2.50;1.00
5415;DHT22;2730;51.512;7.504;2023-01-29T14:54:02;2.50;1.00
5415;DHT22;2730;51.512;7.504;2023-01-29T14:56:35;2.50;1.00
5415;DHT22;2730;51.512;7.504;2023-01-29T14:59:12;2.50;99.90
5415;DHT22;2730;51.512;7.504;2023-01-29T15:01:46;2.50;99.90
5415;DHT22;2730;51.512;7.504;2023-01-29T15:04:16;2.40;1.00
5415;DHT22;2730;51.512;7.504;2023-01-29T15:06:46;2.40;1.00
5415;DHT22;2730;51.512;7.504;2023-01-29T15:09:19;2.40;1.00
5415;DHT22;2730;51.512;7.504;2023-01-29T15:11:59;2.40;99.90
5415;DHT22;2730;51.512;7.504;2023-01-29T15:14:31;2.40;99.90
5415;DHT22;2730;51.512;7.504;2023-01-29T15:17:06;2.40;99.90
5415;DHT22;2730;51.512;7.504;2023-01-29T15:19:42;2.40;99.90
5415;DHT22;2730;51.512;7.504;2023-01-29T15:22:11;2.40;99.90
5415;DHT22;2730;51.512;7.504;2023-01-29T15:24:40;2.40;99.90
5415;DHT22;2730;51.512;7.504;2023-01-29T15:27:12;2.40;99.90
5415;DHT22;2730;51.512;7.504;2023-01-29T15:29:41;2.40;99.90
5415;DHT22;2730;51.512;7.504;2023-01-29T15:32:15;2.40;99.90
5415;DHT22;2730;51.512;7.504;2023-01-29T15:34:44;2.40;99.90
5415;DHT22;2730;51.512;7.504;2023-01-29T15:37:29;2.50;99.90
5415;DHT22;2730;51.512;7.504;2023-01-29T15:39:57;2.50;99.90
5415;DHT22;2730;51.512;7.504;2023-01-29T15:42:27;2.40;99.90
5415;DHT22;2730;51.512;7.504;2023-01-29T15:44:55;2.50;99.90
5415;DHT22;2730;51.512;7.504;2023-01-29T15:47:25;2.40;99.90
5415;DHT22;2730;51.512;7.504;2023-01-29T15:49:54;2.50;99.90
5415;DHT22;2730;51.512;7.504;2023-01-29T15:52:26;2.40;1.00
5415;DHT22;2730;51.512;7.504;2023-01-29T15:54:55;2.40;1.00
5415;DHT22;2730;51.512;7.504;2023-01-29T15:57:27;2.40;99.90
5415;DHT22;2730;51.512;7.504;2023-01-29T15:59:58;2.40;99.90
5415;DHT22;2730;51.512;7.504;2023-01-29T16:02:36;2.50;99.90
5415;DHT22;2730;51.512;7.504;2023-01-29T16:05:06;2.50;99.90
5415;DHT22;2730;51.512;7.504;2023-01-29T16:07:36;2.50;99.90
5415;DHT22;2730;51.512;7.504;2023-01-29T16:10:04;2.50;99.90
5415;DHT22;2730;51.512;7.504;2023-01-29T16:12:33;2.50;99.90
5415;DHT22;2730;51.512;7.504;2023-01-29T16:15:03;2.50;99.90
5415;DHT22;2730;51.512;7.504;2023-01-29T16:17:31;2.50;99.90
5415;DHT22;2730;51.512;7.504;2023-01-29T16:20:02;2.40;99.90
5415;DHT22;2730;51.512;7.504;2023-01-29T16:22:31;2.40;1.00
5415;DHT22;2730;51.512;7.504;2023-01-29T16:25:02;2.50;1.00
5415;DHT22;2730;51.512;7.504;2023-01-29T16:27:30;2.50;1.00
5415;DHT22;2730;51.512;7.504;2023-01-29T16:29:59;2.40;1.00
5415;DHT22;2730;51.512;7.504;2023-01-29T16:32:27;2.40;1.00
5415;DHT22;2730;51.512;7.504;2023-01-29T16:34:56;2.40;1.00
5415;DHT22;2730;51.512;7.504;2023-01-29T16:37:27;2.50;1.00
5415;DHT22;2730;51.512;7.504;2023-01-29T16:39:54;2.60;1.00
5415;DHT22;2730;51.512;7.504;2023-01-29T16:42:24;2.50;1.00
5415;DHT22;2730;51.512;7.504;2023-01-29T16:44:53;2.50;1.00
5415;DHT22;2730;51.512;7.504;2023-01-29T16:47:29;2.50;1.00
5415;DHT22;2730;51.512;7.504;2023-01-29T16:49:57;2.40;1.00
5415;DHT22;2730;51.512;7.504;2023-01-29T16:52:27;2.50;1.00
5415;DHT22;2730;51.512;7.504;2023-01-29T16:55:13;2.40;1.00
5415;DHT22;2730;51.512;7.504;2023-01-29T16:57:41;2.40;1.00
5415;DHT22;2730;51.512;7.504;2023-01-29T17:00:18;2.40;1.00
5415;DHT22;2730;51.512;7.504;2023-01-29T17:02:50;2.40;1.00
5415;DHT22;2730;51.512;7.504;2023-01-29T17:05:21;2.40;1.00
5415;DHT22;2730;51.512;7.504;2023-01-29T17:07:48;2.30;1.00
5415;DHT22;2730;51.512;7.504;2023-01-29T17:10:18;2.30;1.00
5415;DHT22;2730;51.512;7.504;2023-01-29T17:12:52;2.20;1.00
5415;DHT22;2730;51.512;7.504;2023-01-29T17:15:29;2.30;1.00
5415;DHT22;2730;51.512;7.504;2023-01-29T17:17:58;2.20;1.00
5415;DHT22;2730;51.512;7.504;2023-01-29T17:20:25;2.30;1.00
5415;DHT22;2730;51.512;7.504;2023-01-29T17:22:51;2.40;1.00
5415;DHT22;2730;51.512;7.504;2023-01-29T17:25:19;2.30;1.00
5415;DHT22;2730;51.512;7.504;2023-01-29T17:27:46;2.20;1.00
5415;DHT22;2730;51.512;7.504;2023-01-29T17:30:18;2.30;1.00
5415;DHT22;2730;51.512;7.504;2023-01-29T17:32:45;2.30;1.00
5415;DHT22;2730;51.512;7.504;2023-01-29T17:35:14;2.30;1.00
5415;DHT22;2730;51.512;7.504;2023-01-29T17:37:41;2.30;1.00
5415;DHT22;2730;51.512;7.504;2023-01-29T17:40:17;2.30;1.00
5415;DHT22;2730;51.512;7.504;2023-01-29T17:42:45;2.30;1.00
5415;DHT22;2730;51.512;7.504;2023-01-29T17:45:12;2.30;1.00
5415;DHT22;2730;51.512;7.504;2023-01-29T17:47:39;2.40;1.00
5415;DHT22;2730;51.512;7.504;2023-01-29T17:50:17;2.30;1.00
5415;DHT22;2730;51.512;7.504;2023-01-29T17:52:46;2.40;1.00
5415;DHT22;2730;51.512;7.504;2023-01-29T17:55:13;2.40;1.00
5415;DHT22;2730;51.512;7.504;2023-01-29T17:57:40;2.40;1.00
5415;DHT22;2730;51.512;7.504;2023-01-29T18:00:13;2.50;1.00
5415;DHT22;2730;51.512;7.504;2023-01-29T18:02:40;2.50;1.00
5415;DHT22;2730;51.512;7.504;2023-01-29T18:05:08;2.40;1.00
5415;DHT22;2730;51.512;7.504;2023-01-29T18:07:37;2.40;1.00
5415;DHT22;2730;51.512;7.504;2023-01-29T18:10:09;2.50;1.00
5415;DHT22;2730;51.512;7.504;2023-01-29T18:12:37;2.50;1.00
5415;DHT22;2730;51.512;7.504;2023-01-29T18:15:04;2.60;1.00
5415;DHT22;2730;51.512;7.504;2023-01-29T18:17:31;2.50;1.00
5415;DHT22;2730;51.512;7.504;2023-01-29T18:19:58;2.50;1.00
5415;DHT22;2730;51.512;7.504;2023-01-29T18:22:25;2.50;1.00
5415;DHT22;2730;51.512;7.504;2023-01-29T18:24:53;2.50;1.00
5415;DHT22;2730;51.512;7.504;2023-01-29T18:27:20;2.50;1.00
5415;DHT22;2730;51.512;7.504;2023-01-29T18:29:46;2.50;1.00
5415;DHT22;2730;51.512;7.504;2023-01-29T18:32:14;2.50;1.00
5415;DHT22;2730;51.512;7.504;2023-01-29T18:34:41;2.50;1.00
5415;DHT22;2730;51.512;7.504;2023-01-29T18:37:08;2.50;1.00
5415;DHT22;2730;51.512;7.504;2023-01-29T18:39:35;2.50;1.00
5415;DHT22;2730;51.512;7.504;2023-01-29T18:42:03;2.40;1.00
5415;DHT22;2730;51.512;7.504;2023-01-29T18:44:30;2.50;1.00
5415;DHT22;2730;51.512;7.504;2023-01-29T18:46:57;2.40;1.00
5415;DHT22;2730;51.512;7.504;2023-01-29T18:49:23;2.30;1.00
5415;DHT22;2730;51.512;7.504;2023-01-29T18:51:50;2.20;1.00
5415;DHT22;2730;51.512;7.504;2023-01-29T18:54:17;2.20;1.00
5415;DHT22;2730;51.512;7.504;2023-01-29T18:56:45;2.30;1.00
5415;DHT22;2730;51.512;7.504;2023-01-29T18:59:14;2.30;1.00
5415;DHT22;2730;51.512;7.504;2023-01-29T19:01:40;2.20;16.50
5415;DHT22;2730;51.512;7.504;2023-01-29T19:04:07;2.30;18.10
5415;DHT22;2730;51.512;7.504;2023-01-29T19:06:34;2.40;1.00
5415;DHT22;2730;51.512;7.504;2023-01-29T19:09:01;2.30;1.00
5415;DHT22;2730;51.512;7.504;2023-01-29T19:11:27;2.30;1.00
5415;DHT22;2730;51.512;7.504;2023-01-29T19:13:54;2.20;1.00
5415;DHT22;2730;51.512;7.504;2023-01-29T19:16:23;2.30;1.00
5415;DHT22;2730;51.512;7.504;2023-01-29T19:18:51;2.30;1.00
5415;DHT22;2730;51.512;7.504;2023-01-29T19:21:20;2.40;1.00
5415;DHT22;2730;51.512;7.504;2023-01-29T19:23:47;2.40;1.90
5415;DHT22;2730;51.512;7.504;2023-01-29T19:26:14;2.20;27.30
5415;DHT22;2730;51.512;7.504;2023-01-29T19:28:41;2.20;32.10
5415;DHT22;2730;51.512;7.504;2023-01-29T19:31:08;2.20;44.90
5415;DHT22;2730;51.512;7.504;2023-01-29T19:33:36;2.20;55.50
5415;DHT22;2730;51.512;7.504;2023-01-29T19:36:05;2.10;75.00
5415;DHT22;2730;51.512;7.504;2023-01-29T19:38:31;2.10;99.90
5415;DHT22;2730;51.512;7.504;2023-01-29T19:41:02;2.10;99.90
5415;DHT22;2730;51.512;7.504;2023-01-29T19:43:30;2.10;99.90
5415;DHT22;2730;51.512;7.504;2023-01-29T19:45:57;2.10;99.90
5415;DHT22;2730;51.512;7.504;2023-01-29T19:48:25;2.10;99.90
5415;DHT22;2730;51.512;7.504;2023-01-29T19:50:54;2.10;99.90
5415;DHT22;2730;51.512;7.504;2023-01-29T19:53:21;2.00;99.90
5415;DHT22;2730;51.512;7.504;2023-01-29T19:55:56;2.00;99.90
5415;DHT22;2730;51.512;7.504;2023-01-29T19:58:23;2.00;99.90
5415;DHT22;2730;51.512;7.504;2023-01-29T20:00:53;2.00;99.90
5415;DHT22;2730;51.512;7.504;2023-01-29T20:03:20;2.00;99.90
5415;DHT22;2730;51.512;7.504;2023-01-29T20:05:47;2.10;99.90
5415;DHT22;2730;51.512;7.504;2023-01-29T20:08:16;2.10;99.90
5415;DHT22;2730;51.512;7.504;2023-01-29T20:10:44;2.10;99.90
5415;DHT22;2730;51.512;7.504;2023-01-29T20:13:11;2.20;99.90
5415;DHT22;2730;51.512;7.504;2023-01-29T20:15:42;2.20;99.90
5415;DHT22;2730;51.512;7.504;2023-01-29T20:18:09;2.20;99.90
5415;DHT22;2730;51.512;7.504;2023-01-29T20:20:38;2.30;94.00
5415;DHT22;2730;51.512;7.504;2023-01-29T20:23:05;2.30;86.70
5415;DHT22;2730;51.512;7.504;2023-01-29T20:25:34;2.40;66.80
5415;DHT22;2730;51.512;7.504;2023-01-29T20:28:02;2.40;48.30
5415;DHT22;2730;51.512;7.504;2023-01-29T20:30:29;2.30;35.40
5415;DHT22;2730;51.512;7.504;2023-01-29T20:32:56;2.30;42.00
5415;DHT22;2730;51.512;7.504;2023-01-29T20:35:23;2.30;54.90
5415;DHT22;2730;51.512;7.504;2023-01-29T20:37:49;2.30;62.10
5415;DHT22;2730;51.512;7.504;2023-01-29T20:40:16;2.40;44.10
5415;DHT22;2730;51.512;7.504;2023-01-29T20:42:44;2.30;48.60